createdAt,value
2018-02-05T00:00:42.660Z,26.60
2018-02-05T00:01:42.683Z,28.20
2018-02-05T00:02:42.709Z,27.40
2018-02-05T00:03:42.738Z,28.00
2018-02-05T00:04:42.758Z,29.90
2018-02-05T00:05:42.783Z,32.40
2018-02-05T00:06:42.808Z,28.30
2018-02-05T00:07:42.831Z,30.50
2018-02-05T00:08:42.856Z,28.40
2018-02-05T00:09:42.881Z,29.40
2018-02-05T00:10:42.906Z,29.50
2018-02-05T00:11:42.929Z,32.80
2018-02-05T00:12:42.956Z,29.20
2018-02-05T00:13:42.979Z,27.80
2018-02-05T00:14:43.004Z,29.20
2018-02-05T00:15:43.027Z,26.90
2018-02-05T00:16:43.051Z,30.10
2018-02-05T00:17:43.077Z,28.40
2018-02-05T00:18:43.103Z,31.50
2018-02-05T00:19:43.126Z,32.70
2018-02-05T00:20:43.149Z,31.20
2018-02-05T00:21:43.176Z,32.20
2018-02-05T00:22:43.199Z,31.90
2018-02-05T00:23:43.223Z,33.40
2018-02-05T00:24:43.252Z,32.90
2018-02-05T00:25:43.273Z,36.30
2018-02-05T00:26:43.299Z,33.50
2018-02-05T00:27:43.323Z,32.10
2018-02-05T00:28:43.345Z,32.30
2018-02-05T00:29:43.372Z,33.70
2018-02-05T00:30:43.398Z,30.30
2018-02-05T00:31:43.420Z,36.30
2018-02-05T00:32:43.445Z,28.70
2018-02-05T00:33:43.470Z,32.30
2018-02-05T00:34:43.495Z,30.50
2018-02-05T00:35:43.517Z,30.10
2018-02-05T00:36:43.542Z,32.00
2018-02-05T00:37:43.568Z,32.60
2018-02-05T00:38:43.592Z,30.70
2018-02-05T00:39:43.617Z,34.40
2018-02-05T00:40:43.640Z,32.50
2018-02-05T00:41:43.664Z,35.00
2018-02-05T00:42:43.689Z,30.80
2018-02-05T00:43:43.713Z,31.40
2018-02-05T00:44:43.737Z,29.40
2018-02-05T00:45:43.762Z,32.40
2018-02-05T00:46:43.785Z,33.00
2018-02-05T00:47:43.810Z,33.30
2018-02-05T00:48:43.834Z,28.70
2018-02-05T00:49:43.859Z,33.30
2018-02-05T00:50:43.883Z,35.50
2018-02-05T00:51:43.906Z,35.10
2018-02-05T00:52:43.937Z,32.40
2018-02-05T00:53:43.955Z,35.50
2018-02-05T00:54:43.979Z,33.90
2018-02-05T00:55:44.003Z,34.60
2018-02-05T00:56:44.027Z,36.60
2018-02-05T00:57:44.052Z,40.70
2018-02-05T00:58:44.076Z,38.60
2018-02-05T00:59:44.099Z,40.70
2018-02-05T01:00:44.124Z,37.60
2018-02-05T01:01:44.147Z,35.10
2018-02-05T01:02:44.171Z,40.20
2018-02-05T01:03:44.195Z,40.90
2018-02-05T01:04:44.218Z,35.50
2018-02-05T01:05:44.242Z,38.20
2018-02-05T01:06:44.268Z,38.40
2018-02-05T01:07:44.292Z,39.90
2018-02-05T01:08:44.322Z,36.80
2018-02-05T01:09:44.341Z,37.00
2018-02-05T01:10:44.365Z,39.10
2018-02-05T01:11:44.389Z,40.10
2018-02-05T01:12:44.410Z,38.30
2018-02-05T01:13:44.435Z,36.00
2018-02-05T01:14:44.461Z,36.50
2018-02-05T01:15:44.484Z,36.10
2018-02-05T01:16:44.508Z,37.90
2018-02-05T01:17:44.531Z,36.30
2018-02-05T01:18:44.557Z,37.30
2018-02-05T01:19:44.580Z,37.20
2018-02-05T01:20:44.604Z,35.10
2018-02-05T01:21:44.628Z,38.30
2018-02-05T01:22:44.652Z,39.40
2018-02-05T01:23:44.682Z,41.60
2018-02-05T01:24:44.700Z,38.70
2018-02-05T01:25:44.723Z,38.70
2018-02-05T01:26:44.748Z,40.50
2018-02-05T01:27:44.771Z,37.10
2018-02-05T01:28:44.795Z,37.20
2018-02-05T01:29:44.819Z,34.70
2018-02-05T01:30:44.844Z,38.10
2018-02-05T01:31:44.868Z,37.10
2018-02-05T01:32:44.892Z,40.80
2018-02-05T01:33:44.916Z,40.20
2018-02-05T01:34:44.940Z,39.10
2018-02-05T01:35:44.963Z,38.30
2018-02-05T01:36:44.987Z,41.50
2018-02-05T01:37:45.011Z,44.20
2018-02-05T01:38:45.037Z,41.20
2018-02-05T01:39:45.057Z,43.60
2018-02-05T01:40:45.082Z,45.10
2018-02-05T01:41:45.107Z,42.00
2018-02-05T01:42:45.132Z,42.30
2018-02-05T01:43:45.154Z,42.80
2018-02-05T01:44:45.178Z,45.00
2018-02-05T01:45:45.203Z,46.20
2018-02-05T01:46:45.226Z,47.50
2018-02-05T01:47:45.248Z,48.80
2018-02-05T01:48:45.273Z,47.30
2018-02-05T01:49:45.297Z,54.20
2018-02-05T01:50:45.321Z,54.90
2018-02-05T01:51:45.344Z,50.20
2018-02-05T01:52:45.368Z,45.60
2018-02-05T01:53:45.393Z,44.90
2018-02-05T01:54:45.415Z,42.40
2018-02-05T01:55:45.439Z,46.50
2018-02-05T01:56:45.463Z,44.50
2018-02-05T01:57:45.487Z,44.00
2018-02-05T01:58:45.511Z,47.10
2018-02-05T01:59:45.533Z,42.50
2018-02-05T02:00:45.558Z,43.40
2018-02-05T02:01:45.582Z,44.40
2018-02-05T02:02:45.606Z,44.70
2018-02-05T02:03:45.629Z,42.00
2018-02-05T02:04:45.653Z,43.80
2018-02-05T02:05:45.677Z,44.60
2018-02-05T02:06:45.701Z,44.40
2018-02-05T02:07:45.724Z,45.70
2018-02-05T02:08:45.748Z,46.10
2018-02-05T02:09:45.771Z,54.60
2018-02-05T02:10:45.811Z,49.80
2018-02-05T02:11:45.819Z,50.30
2018-02-05T02:12:45.843Z,52.30
2018-02-05T02:13:45.868Z,37.10
2018-02-05T02:14:45.892Z,39.70
2018-02-05T02:15:45.915Z,50.60
2018-02-05T02:16:45.937Z,49.80
2018-02-05T02:17:45.963Z,50.20
2018-02-05T02:18:45.988Z,53.70
2018-02-05T02:19:46.010Z,52.30
2018-02-05T02:20:46.033Z,55.40
2018-02-05T02:21:46.057Z,53.40
2018-02-05T02:22:46.083Z,48.40
2018-02-05T02:23:46.105Z,49.90
2018-02-05T02:24:46.129Z,45.90
2018-02-05T02:25:46.154Z,52.40
2018-02-05T02:26:46.177Z,53.40
2018-02-05T02:27:46.201Z,48.00
2018-02-05T02:28:46.225Z,43.30
2018-02-05T02:29:46.251Z,45.30
2018-02-05T02:30:46.274Z,41.70
2018-02-05T02:31:46.297Z,45.10
2018-02-05T02:32:46.320Z,49.50
2018-02-05T02:33:46.345Z,43.40
2018-02-05T02:34:46.369Z,48.10
2018-02-05T02:35:46.392Z,45.50
2018-02-05T02:36:46.417Z,42.20
2018-02-05T02:37:46.439Z,44.00
2018-02-05T02:38:46.463Z,44.20
2018-02-05T02:39:46.489Z,44.90
2018-02-05T02:40:46.511Z,43.80
2018-02-05T02:41:46.536Z,41.80
2018-02-05T02:42:46.561Z,43.50
2018-02-05T02:43:46.583Z,38.20
2018-02-05T02:44:46.607Z,40.60
2018-02-05T02:45:46.631Z,42.60
2018-02-05T02:46:46.656Z,47.30
2018-02-05T02:47:46.678Z,48.10
2018-02-05T02:48:46.702Z,44.30
2018-02-05T02:49:46.726Z,47.30
2018-02-05T02:50:46.752Z,49.90
2018-02-05T02:51:46.772Z,47.60
2018-02-05T02:52:46.798Z,53.80
2018-02-05T02:53:46.821Z,45.00
2018-02-05T02:54:46.852Z,49.30
2018-02-05T02:55:46.869Z,50.50
2018-02-05T02:56:46.893Z,46.60
2018-02-05T02:57:46.918Z,51.90
2018-02-05T02:58:46.940Z,47.50
2018-02-05T02:59:46.964Z,46.80
2018-02-05T03:00:46.988Z,50.00
2018-02-05T03:01:47.012Z,49.00
2018-02-05T03:02:47.037Z,47.70
2018-02-05T03:03:47.061Z,50.20
2018-02-05T03:04:47.084Z,47.10
2018-02-05T03:05:47.108Z,47.00
2018-02-05T03:06:47.132Z,48.30
2018-02-05T03:07:47.155Z,46.50
2018-02-05T03:08:47.179Z,44.40
2018-02-05T03:09:47.203Z,45.60
2018-02-05T03:10:47.226Z,41.30
2018-02-05T03:11:47.249Z,39.80
2018-02-05T03:12:47.273Z,35.20
2018-02-05T03:13:47.296Z,38.50
2018-02-05T03:14:47.321Z,41.70
2018-02-05T03:15:47.344Z,45.90
2018-02-05T03:16:47.368Z,45.60
2018-02-05T03:17:47.393Z,45.60
2018-02-05T03:18:47.417Z,44.20
2018-02-05T03:19:47.440Z,44.30
2018-02-05T03:20:47.464Z,43.90
2018-02-05T03:21:47.487Z,44.20
2018-02-05T03:22:47.513Z,41.00
2018-02-05T03:23:47.533Z,44.20
2018-02-05T03:24:47.559Z,49.00
2018-02-05T03:25:47.583Z,43.00
2018-02-05T03:26:47.606Z,41.50
2018-02-05T03:27:47.631Z,42.70
2018-02-05T03:28:47.654Z,45.60
2018-02-05T03:29:47.677Z,43.20
2018-02-05T03:30:47.702Z,42.30
2018-02-05T03:31:47.724Z,41.80
2018-02-05T03:32:47.748Z,43.50
2018-02-05T03:33:47.771Z,44.00
2018-02-05T03:34:47.798Z,46.90
2018-02-05T03:35:47.819Z,48.70
2018-02-05T03:36:47.842Z,48.30
2018-02-05T03:37:47.867Z,53.40
2018-02-05T03:38:47.891Z,47.40
2018-02-05T03:39:47.913Z,48.60
2018-02-05T03:40:47.943Z,53.20
2018-02-05T03:41:47.962Z,54.40
2018-02-05T03:42:47.986Z,52.00
2018-02-05T03:43:48.009Z,48.70
2018-02-05T03:44:48.032Z,55.50
2018-02-05T03:45:48.056Z,50.80
2018-02-05T03:46:48.081Z,56.60
2018-02-05T03:47:48.104Z,49.40
2018-02-05T03:48:48.131Z,50.00
2018-02-05T03:49:48.152Z,47.10
2018-02-05T03:50:48.175Z,47.80
2018-02-05T03:51:48.199Z,50.10
2018-02-05T03:52:48.227Z,51.40
2018-02-05T03:53:48.248Z,48.20
2018-02-05T03:54:48.270Z,53.50
2018-02-05T03:55:48.294Z,49.00
2018-02-05T03:56:48.318Z,48.40
2018-02-05T03:57:48.342Z,47.40
2018-02-05T03:58:48.367Z,50.50
2018-02-05T03:59:48.390Z,48.10
2018-02-05T04:00:48.416Z,48.60
2018-02-05T04:01:48.437Z,48.10
2018-02-05T04:02:48.460Z,46.30
2018-02-05T04:03:48.485Z,49.30
2018-02-05T04:04:48.512Z,44.70
2018-02-05T04:05:48.531Z,43.80
2018-02-05T04:06:48.557Z,50.10
2018-02-05T04:07:48.580Z,45.70
2018-02-05T04:08:48.604Z,53.80
2018-02-05T04:09:48.627Z,52.60
2018-02-05T04:10:48.655Z,50.30
2018-02-05T04:11:48.678Z,51.80
2018-02-05T04:12:48.699Z,46.80
2018-02-05T04:13:48.725Z,51.10
2018-02-05T04:14:48.748Z,52.70
2018-02-05T04:15:48.771Z,48.90
2018-02-05T04:16:48.795Z,52.10
2018-02-05T04:17:48.820Z,50.40
2018-02-05T04:18:48.844Z,50.50
2018-02-05T04:19:48.867Z,47.60
2018-02-05T04:20:48.891Z,48.90
2018-02-05T04:21:48.914Z,48.30
2018-02-05T04:22:48.939Z,48.80
2018-02-05T04:23:48.963Z,49.40
2018-02-05T04:24:48.987Z,51.40
2018-02-05T04:25:49.011Z,54.20
2018-02-05T04:26:49.036Z,52.60
2018-02-05T04:27:49.062Z,55.00
2018-02-05T04:28:49.083Z,55.20
2018-02-05T04:29:49.107Z,55.70
2018-02-05T04:30:49.133Z,61.80
2018-02-05T04:31:49.154Z,58.20
2018-02-05T04:32:49.178Z,62.00
2018-02-05T04:33:49.201Z,63.60
2018-02-05T04:34:49.225Z,56.70
2018-02-05T04:35:49.254Z,60.10
2018-02-05T04:36:49.274Z,61.10
2018-02-05T04:37:49.298Z,62.50
2018-02-05T04:38:49.321Z,57.00
2018-02-05T04:39:49.345Z,58.70
2018-02-05T04:40:49.374Z,56.60
2018-02-05T04:41:49.391Z,53.80
2018-02-05T04:42:49.416Z,60.90
2018-02-05T04:43:49.438Z,50.70
2018-02-05T04:44:49.464Z,57.10
2018-02-05T04:45:49.488Z,54.90
2018-02-05T04:46:49.521Z,57.70
2018-02-05T04:47:49.533Z,59.50
2018-02-05T04:48:49.557Z,59.30
2018-02-05T04:49:49.582Z,61.50
2018-02-05T04:50:49.605Z,56.30
2018-02-05T04:51:49.629Z,58.10
2018-02-05T04:52:49.653Z,55.50
2018-02-05T04:53:49.676Z,62.90
2018-02-05T04:54:49.700Z,60.60
2018-02-05T04:55:49.723Z,66.10
2018-02-05T04:56:49.748Z,62.90
2018-02-05T04:57:49.771Z,58.60
2018-02-05T04:58:49.795Z,66.40
2018-02-05T04:59:49.818Z,69.00
2018-02-05T05:00:49.842Z,69.20
2018-02-05T05:01:49.866Z,73.80
2018-02-05T05:02:49.890Z,76.00
2018-02-05T05:03:49.912Z,76.10
2018-02-05T05:04:49.936Z,84.10
2018-02-05T05:05:49.960Z,78.40
2018-02-05T05:06:49.984Z,84.60
2018-02-05T05:07:50.007Z,103.10
2018-02-05T05:08:50.029Z,140.20
2018-02-05T05:09:50.053Z,132.20
2018-02-05T05:10:50.078Z,105.80
2018-02-05T05:11:50.104Z,83.30
2018-02-05T05:12:50.124Z,71.90
2018-02-05T05:13:50.148Z,73.20
2018-02-05T05:14:50.173Z,65.90
2018-02-05T05:15:50.197Z,72.20
2018-02-05T05:16:50.221Z,74.40
2018-02-05T05:17:50.244Z,66.80
2018-02-05T05:18:50.267Z,67.50
2018-02-05T05:19:50.290Z,70.20
2018-02-05T05:20:50.320Z,69.90
2018-02-05T05:21:50.338Z,66.10
2018-02-05T05:22:50.362Z,67.70
2018-02-05T05:23:50.384Z,72.80
2018-02-05T05:24:50.408Z,70.50
2018-02-05T05:25:50.432Z,73.70
2018-02-05T05:26:50.457Z,69.20
2018-02-05T05:27:50.479Z,68.40
2018-02-05T05:28:50.506Z,75.20
2018-02-05T05:29:50.527Z,80.80
2018-02-05T05:30:50.555Z,79.90
2018-02-05T05:31:50.572Z,75.00
2018-02-05T05:32:50.596Z,81.00
2018-02-05T05:33:50.620Z,82.80
2018-02-05T05:34:50.665Z,82.10
2018-02-05T05:35:50.667Z,80.30
2018-02-05T05:36:50.691Z,87.90
2018-02-05T05:37:50.716Z,80.40
2018-02-05T05:38:50.739Z,82.20
2018-02-05T05:39:50.762Z,77.20
2018-02-05T05:40:50.786Z,80.10
2018-02-05T05:41:50.810Z,82.70
2018-02-05T05:42:50.833Z,81.20
2018-02-05T05:43:50.855Z,75.60
2018-02-05T05:44:50.880Z,78.00
2018-02-05T05:45:50.904Z,77.80
2018-02-05T05:46:50.930Z,77.60
2018-02-05T05:47:50.951Z,67.80
2018-02-05T05:48:50.974Z,63.70
2018-02-05T05:49:50.999Z,62.90
2018-02-05T05:50:51.022Z,62.90
2018-02-05T05:51:51.044Z,67.00
2018-02-05T05:52:51.069Z,72.60
2018-02-05T05:53:51.092Z,70.40
2018-02-05T05:54:51.117Z,67.20
2018-02-05T05:55:51.140Z,61.80
2018-02-05T05:56:51.163Z,72.70
2018-02-05T05:57:51.186Z,67.70
2018-02-05T05:58:51.210Z,80.70
2018-02-05T05:59:51.233Z,75.90
2018-02-05T06:00:51.258Z,80.60
2018-02-05T06:01:51.281Z,82.30
2018-02-05T06:02:51.304Z,81.60
2018-02-05T06:03:51.328Z,73.00
2018-02-05T06:04:51.351Z,86.70
2018-02-05T06:05:51.375Z,84.10
2018-02-05T06:06:51.399Z,83.90
2018-02-05T06:07:51.420Z,73.10
2018-02-05T06:08:51.445Z,81.00
2018-02-05T06:09:51.469Z,81.40
2018-02-05T06:10:51.494Z,77.00
2018-02-05T06:11:51.516Z,93.80
2018-02-05T06:12:51.539Z,102.00
2018-02-05T06:13:51.562Z,93.40
2018-02-05T06:14:51.587Z,88.70
2018-02-05T06:15:51.610Z,82.60
2018-02-05T06:16:51.632Z,87.70
2018-02-05T06:17:51.656Z,83.30
2018-02-05T06:18:51.680Z,82.10
2018-02-05T06:19:51.704Z,85.10
2018-02-05T06:20:51.727Z,77.70
2018-02-05T06:21:51.749Z,75.80
2018-02-05T06:22:51.774Z,78.60
2018-02-05T06:23:51.798Z,85.80
2018-02-05T06:24:51.820Z,88.30
2018-02-05T06:25:51.842Z,100.70
2018-02-05T06:26:51.865Z,94.30
2018-02-05T06:27:51.895Z,84.80
2018-02-05T06:28:51.913Z,101.60
2018-02-05T06:29:51.937Z,102.40
2018-02-05T06:30:51.959Z,93.30
2018-02-05T06:31:51.982Z,99.00
2018-02-05T06:32:52.006Z,93.80
2018-02-05T06:33:52.030Z,95.70
2018-02-05T06:34:52.051Z,88.50
2018-02-05T06:35:52.075Z,88.30
2018-02-05T06:36:52.099Z,92.00
2018-02-05T06:37:52.122Z,91.40
2018-02-05T06:38:52.145Z,84.90
2018-02-05T06:39:52.166Z,85.70
2018-02-05T06:40:52.192Z,90.00
2018-02-05T06:41:52.215Z,76.40
2018-02-05T06:42:52.239Z,79.70
2018-02-05T06:43:52.260Z,78.80
2018-02-05T06:44:52.284Z,83.10
2018-02-05T06:45:52.318Z,82.30
2018-02-05T06:46:52.332Z,79.30
2018-02-05T06:47:52.355Z,76.00
2018-02-05T06:48:52.377Z,72.90
2018-02-05T06:49:52.401Z,73.80
2018-02-05T06:50:52.425Z,73.00
2018-02-05T06:51:52.448Z,75.30
2018-02-05T06:52:52.472Z,72.40
2018-02-05T06:53:52.504Z,85.20
2018-02-05T06:54:52.518Z,89.20
2018-02-05T06:55:52.540Z,77.20
2018-02-05T06:56:52.566Z,72.00
2018-02-05T06:57:52.588Z,67.70
2018-02-05T06:58:52.611Z,74.30
2018-02-05T06:59:52.634Z,88.10
2018-02-05T07:00:52.658Z,69.40
2018-02-05T07:01:52.681Z,58.20
2018-02-05T07:02:52.747Z,67.90
2018-02-05T07:03:52.727Z,55.00
2018-02-05T07:04:52.751Z,59.10
2018-02-05T07:05:52.774Z,52.60
2018-02-05T07:06:52.798Z,51.40
2018-02-05T07:07:52.822Z,53.10
2018-02-05T07:08:52.846Z,50.20
2018-02-05T07:09:52.868Z,54.70
2018-02-05T07:10:52.892Z,54.60
2018-02-05T07:11:52.915Z,53.50
2018-02-05T07:12:52.939Z,51.80
2018-02-05T07:13:52.962Z,50.70
2018-02-05T07:14:52.986Z,62.90
2018-02-05T07:15:53.009Z,68.60
2018-02-05T07:16:53.037Z,65.10
2018-02-05T07:17:53.056Z,63.60
2018-02-05T07:18:53.079Z,68.00
2018-02-05T07:19:53.109Z,66.80
2018-02-05T07:20:53.127Z,61.80
2018-02-05T07:21:53.150Z,64.50
2018-02-05T07:22:53.173Z,66.50
2018-02-05T07:23:53.197Z,65.60
2018-02-05T07:24:53.221Z,65.80
2018-02-05T07:25:53.244Z,70.40
2018-02-05T07:26:53.268Z,71.40
2018-02-05T07:27:53.291Z,74.50
2018-02-05T07:28:53.315Z,73.80
2018-02-05T07:29:53.386Z,71.60
2018-02-05T07:30:53.432Z,74.20
2018-02-05T07:31:53.384Z,63.40
2018-02-05T07:32:53.410Z,66.50
2018-02-05T07:33:53.434Z,73.80
2018-02-05T07:34:53.458Z,56.60
2018-02-05T07:35:53.481Z,57.10
2018-02-05T07:36:53.504Z,55.30
2018-02-05T07:37:53.527Z,58.90
2018-02-05T07:38:53.552Z,50.30
2018-02-05T07:39:53.575Z,55.00
2018-02-05T07:40:53.600Z,62.20
2018-02-05T07:41:53.623Z,57.30
2018-02-05T07:42:53.648Z,57.80
2018-02-05T07:43:53.671Z,59.70
2018-02-05T07:44:53.696Z,58.20
2018-02-05T07:45:53.718Z,56.20
2018-02-05T07:46:53.742Z,48.30
2018-02-05T07:47:53.765Z,49.80
2018-02-05T07:48:53.790Z,45.50
2018-02-05T07:49:53.818Z,48.00
2018-02-05T07:50:53.840Z,48.80
2018-02-05T07:51:53.863Z,52.20
2018-02-05T07:52:53.887Z,59.60
2018-02-05T07:53:53.910Z,56.70
2018-02-05T07:54:53.943Z,53.90
2018-02-05T07:55:53.959Z,59.10
2018-02-05T07:56:53.983Z,55.20
2018-02-05T07:57:54.011Z,53.30
2018-02-05T07:58:54.032Z,52.00
2018-02-05T07:59:54.055Z,61.90
2018-02-05T08:00:54.078Z,59.50
2018-02-05T08:01:54.104Z,57.10
2018-02-05T08:02:54.129Z,47.60
2018-02-05T08:03:54.152Z,51.00
2018-02-05T08:04:54.177Z,46.50
2018-02-05T08:05:54.200Z,48.00
2018-02-05T08:06:54.226Z,52.80
2018-02-05T08:07:54.298Z,42.80
2018-02-05T08:08:54.273Z,44.10
2018-02-05T08:09:54.302Z,47.90
2018-02-05T08:10:54.324Z,45.30
2018-02-05T08:11:54.346Z,44.60
2018-02-05T08:12:54.372Z,44.80
2018-02-05T08:13:54.397Z,44.70
2018-02-05T08:14:54.422Z,45.00
2018-02-05T08:15:54.445Z,48.50
2018-02-05T08:16:54.470Z,42.70
2018-02-05T08:17:54.495Z,44.40
2018-02-05T08:18:54.519Z,49.40
2018-02-05T08:19:54.577Z,41.80
2018-02-05T08:20:54.569Z,44.40
2018-02-05T08:21:54.594Z,46.70
2018-02-05T08:22:54.620Z,44.00
2018-02-05T08:23:54.644Z,45.80
2018-02-05T08:24:54.668Z,43.90
2018-02-05T08:25:54.694Z,44.10
2018-02-05T08:26:54.719Z,45.60
2018-02-05T08:27:54.744Z,45.40
2018-02-05T08:28:54.770Z,39.80
2018-02-05T08:29:54.795Z,39.10
2018-02-05T08:30:54.821Z,36.40
2018-02-05T08:31:54.846Z,39.90
2018-02-05T08:32:54.872Z,34.70
2018-02-05T08:33:54.897Z,36.60
2018-02-05T08:34:54.922Z,36.20
2018-02-05T08:35:54.947Z,35.00
2018-02-05T08:36:54.972Z,37.70
2018-02-05T08:37:54.999Z,39.20
2018-02-05T08:38:55.025Z,40.60
2018-02-05T08:39:55.050Z,38.70
2018-02-05T08:40:55.076Z,40.40
2018-02-05T08:41:55.317Z,39.60
2018-02-05T08:42:55.128Z,39.90
2018-02-05T08:43:55.158Z,39.40
2018-02-05T08:44:55.180Z,39.90
2018-02-05T08:45:55.206Z,37.10
2018-02-05T08:46:55.232Z,38.70
2018-02-05T08:47:55.256Z,37.70
2018-02-05T08:48:55.286Z,45.10
2018-02-05T08:49:55.311Z,42.70
2018-02-05T08:50:55.335Z,46.30
2018-02-05T08:51:55.361Z,44.30
2018-02-05T08:52:55.389Z,42.30
2018-02-05T08:53:55.414Z,41.70
2018-02-05T08:54:55.441Z,44.20
2018-02-05T08:55:55.466Z,47.90
2018-02-05T08:56:55.493Z,46.50
2018-02-05T08:57:55.521Z,43.10
2018-02-05T08:58:55.546Z,40.40
2018-02-05T08:59:55.574Z,40.10
2018-02-05T09:00:55.601Z,44.10
2018-02-05T09:01:55.628Z,42.30
2018-02-05T09:02:55.655Z,38.00
2018-02-05T09:03:55.681Z,34.40
2018-02-05T09:04:55.709Z,39.40
2018-02-05T09:05:55.736Z,39.50
2018-02-05T09:06:55.771Z,41.90
2018-02-05T09:07:55.790Z,42.80
2018-02-05T09:08:55.818Z,45.70
2018-02-05T09:09:55.846Z,38.70
2018-02-05T09:10:55.874Z,41.10
2018-02-05T09:11:55.902Z,38.10
2018-02-05T09:12:55.931Z,49.30
2018-02-05T09:13:55.955Z,57.10
2018-02-05T09:14:55.985Z,57.30
2018-02-05T09:15:56.011Z,50.60
2018-02-05T09:16:56.038Z,43.80
2018-02-05T09:17:56.066Z,45.60
2018-02-05T09:18:56.098Z,36.80
2018-02-05T09:19:56.120Z,30.20
2018-02-05T09:20:56.150Z,31.40
2018-02-05T09:21:56.175Z,28.40
2018-02-05T09:22:56.204Z,29.20
2018-02-05T09:23:56.230Z,32.40
2018-02-05T09:24:56.259Z,30.20
2018-02-05T09:25:56.287Z,31.10
2018-02-05T09:26:56.316Z,32.90
2018-02-05T09:27:56.343Z,39.10
2018-02-05T09:28:56.371Z,39.70
2018-02-05T09:29:56.399Z,39.80
2018-02-05T09:30:56.427Z,41.70
2018-02-05T09:31:56.455Z,43.50
2018-02-05T09:32:56.483Z,36.30
2018-02-05T09:33:56.514Z,31.50
2018-02-05T09:34:56.541Z,25.80
2018-02-05T09:35:56.569Z,26.50
2018-02-05T09:36:56.599Z,25.40
2018-02-05T09:37:56.629Z,21.60
2018-02-05T09:38:56.658Z,21.80
2018-02-05T09:39:56.686Z,22.60
2018-02-05T09:40:56.716Z,23.10
2018-02-05T09:41:56.746Z,20.00
2018-02-05T09:42:56.776Z,22.10
2018-02-05T09:43:56.808Z,20.40
2018-02-05T09:44:56.839Z,21.30
2018-02-05T09:45:56.866Z,25.00
2018-02-05T09:46:56.896Z,21.70
2018-02-05T09:47:56.927Z,20.70
2018-02-05T09:48:56.958Z,22.80
2018-02-05T09:49:56.990Z,18.60
2018-02-05T09:50:57.021Z,20.60
2018-02-05T09:51:57.050Z,20.20
2018-02-05T09:52:57.084Z,21.70
2018-02-05T09:53:57.115Z,20.70
2018-02-05T09:54:57.147Z,22.00
2018-02-05T09:55:57.177Z,23.00
2018-02-05T09:56:57.211Z,22.70
2018-02-05T09:57:57.243Z,20.60
2018-02-05T09:58:57.277Z,18.60
2018-02-05T09:59:57.308Z,21.70
2018-02-05T10:00:57.340Z,19.50
2018-02-05T10:01:57.374Z,21.90
2018-02-05T10:02:57.407Z,19.90
2018-02-05T10:03:57.440Z,21.10
2018-02-05T10:04:57.473Z,20.30
2018-02-05T10:05:57.508Z,19.90
2018-02-05T10:06:57.543Z,19.40
2018-02-05T10:07:57.577Z,20.10
2018-02-05T10:08:57.611Z,20.10
2018-02-05T10:09:57.646Z,20.80
2018-02-05T10:10:57.682Z,19.30
2018-02-05T10:11:57.717Z,19.50
2018-02-05T10:12:57.752Z,21.00
2018-02-05T10:13:57.789Z,19.00
2018-02-05T10:14:57.825Z,19.30
2018-02-05T10:15:57.861Z,19.50
2018-02-05T10:16:57.897Z,20.70
2018-02-05T10:17:57.934Z,19.00
2018-02-05T10:18:57.972Z,19.70
2018-02-05T10:19:58.009Z,18.20
2018-02-05T10:20:58.047Z,20.20
2018-02-05T10:21:58.084Z,20.00
2018-02-05T10:22:58.122Z,19.90
2018-02-05T10:23:58.159Z,20.10
2018-02-05T10:24:58.199Z,17.20
2018-02-05T10:25:58.236Z,18.30
2018-02-05T10:26:58.275Z,17.90
2018-02-05T10:27:58.312Z,18.60
2018-02-05T10:28:58.352Z,18.10
2018-02-05T10:29:58.389Z,18.40
2018-02-05T10:30:58.429Z,19.30
2018-02-05T10:31:58.521Z,18.60
2018-02-05T10:32:58.508Z,19.00
2018-02-05T10:33:58.545Z,19.00
2018-02-05T10:34:58.584Z,19.60
2018-02-05T10:35:58.621Z,19.00
2018-02-05T10:36:58.660Z,18.40
2018-02-05T10:37:58.701Z,19.80
2018-02-05T10:38:58.741Z,19.40
2018-02-05T10:39:58.780Z,18.70
2018-02-05T10:40:58.819Z,18.90
2018-02-05T10:41:58.858Z,20.00
2018-02-05T10:42:58.904Z,19.10
2018-02-05T10:43:58.937Z,19.10
2018-02-05T10:44:58.975Z,18.10
2018-02-05T10:45:59.014Z,18.90
2018-02-05T10:46:59.053Z,19.40
2018-02-05T10:47:59.090Z,19.50
2018-02-05T10:48:59.129Z,25.60
2018-02-05T10:49:59.168Z,19.60
2018-02-05T10:50:59.206Z,19.10
2018-02-05T10:51:59.245Z,19.20
2018-02-05T10:52:59.283Z,18.60
2018-02-05T10:53:59.321Z,19.10
2018-02-05T10:54:59.360Z,18.50
2018-02-05T10:55:59.396Z,18.90
2018-02-05T10:56:59.433Z,19.00
2018-02-05T10:57:59.472Z,20.20
2018-02-05T10:58:59.510Z,20.00
2018-02-05T10:59:59.547Z,20.80
2018-02-05T11:00:59.587Z,19.10
2018-02-05T11:01:59.623Z,19.00
2018-02-05T11:02:59.662Z,17.40
2018-02-05T11:03:59.699Z,18.60
2018-02-05T11:04:59.736Z,18.40
2018-02-05T11:05:59.774Z,18.00
2018-02-05T11:06:59.816Z,18.80
2018-02-05T11:07:59.848Z,20.20
2018-02-05T11:08:59.884Z,18.70
2018-02-05T11:09:59.922Z,18.80
2018-02-05T11:10:59.959Z,18.70
2018-02-05T11:11:59.995Z,18.20
2018-02-05T11:13:00.032Z,19.00
2018-02-05T11:14:00.069Z,18.10
2018-02-05T11:15:00.105Z,18.60
2018-02-05T11:16:00.143Z,21.80
2018-02-05T11:17:00.176Z,21.30
2018-02-05T11:18:00.212Z,18.80
2018-02-05T11:19:00.248Z,19.10
2018-02-05T11:20:00.282Z,19.10
2018-02-05T11:21:00.318Z,19.60
2018-02-05T11:22:00.351Z,18.80
2018-02-05T11:23:00.389Z,17.90
2018-02-05T11:24:00.422Z,18.40
2018-02-05T11:25:00.456Z,19.60
2018-02-05T11:26:00.491Z,21.60
2018-02-05T11:27:00.525Z,22.90
2018-02-05T11:28:00.559Z,21.40
2018-02-05T11:29:00.592Z,21.10
2018-02-05T11:30:00.628Z,18.10
2018-02-05T11:31:00.663Z,18.00
2018-02-05T11:32:00.698Z,18.50
2018-02-05T11:33:00.731Z,18.50
2018-02-05T11:34:00.768Z,22.30
2018-02-05T11:35:00.806Z,18.80
2018-02-05T11:36:00.838Z,18.80
2018-02-05T11:37:00.874Z,19.70
2018-02-05T11:38:00.911Z,18.70
2018-02-05T11:39:00.947Z,17.80
2018-02-05T11:40:00.983Z,18.00
2018-02-05T11:41:01.022Z,19.10
2018-02-05T11:42:01.059Z,19.80
2018-02-05T11:43:01.091Z,18.90
2018-02-05T11:44:01.127Z,21.20
2018-02-05T11:45:01.163Z,19.00
2018-02-05T11:46:01.199Z,19.00
2018-02-05T11:47:01.236Z,19.60
2018-02-05T11:48:01.270Z,19.10
2018-02-05T11:49:01.306Z,20.00
2018-02-05T11:50:01.343Z,18.90
2018-02-05T11:51:01.377Z,19.30
2018-02-05T11:52:01.411Z,20.40
2018-02-05T11:53:01.445Z,20.50
2018-02-05T11:54:01.480Z,18.10
2018-02-05T11:55:01.516Z,18.60
2018-02-05T11:56:01.551Z,19.90
2018-02-05T11:57:01.586Z,19.90
2018-02-05T11:58:01.621Z,19.10
2018-02-05T11:59:01.657Z,21.90
2018-02-05T12:00:01.692Z,22.30
2018-02-05T12:01:01.728Z,19.50
2018-02-05T12:02:01.763Z,19.90
2018-02-05T12:03:01.799Z,19.30
2018-02-05T12:04:01.834Z,19.80
2018-02-05T12:05:01.868Z,22.10
2018-02-05T12:06:01.905Z,20.80
2018-02-05T12:07:01.944Z,19.00
2018-02-05T12:08:01.975Z,21.10
2018-02-05T12:09:02.010Z,18.50
2018-02-05T12:10:02.046Z,20.10
2018-02-05T12:11:02.080Z,19.50
2018-02-05T12:12:02.113Z,19.20
2018-02-05T12:13:02.147Z,20.70
2018-02-05T12:14:02.181Z,19.90
2018-02-05T12:15:02.216Z,19.60
2018-02-05T12:16:02.250Z,20.60
2018-02-05T12:17:02.295Z,19.80
2018-02-05T12:18:02.318Z,19.80
2018-02-05T12:19:02.353Z,21.70
2018-02-05T12:20:02.387Z,21.50
2018-02-05T12:21:02.420Z,19.80
2018-02-05T12:22:02.452Z,22.30
2018-02-05T12:23:02.487Z,22.20
2018-02-05T12:24:02.520Z,21.50
2018-02-05T12:25:02.553Z,22.30
2018-02-05T12:26:02.586Z,21.50
2018-02-05T12:27:02.620Z,21.30
2018-02-05T12:28:02.654Z,22.20
2018-02-05T12:29:02.687Z,22.40
2018-02-05T12:30:02.723Z,21.50
2018-02-05T12:31:02.756Z,19.70
2018-02-05T12:32:02.792Z,22.40
2018-02-05T12:33:02.825Z,20.10
2018-02-05T12:34:02.860Z,19.10
2018-02-05T12:35:02.893Z,21.40
2018-02-05T12:36:02.928Z,21.30
2018-02-05T12:37:02.961Z,21.60
2018-02-05T12:38:02.994Z,20.00
2018-02-05T12:39:03.027Z,22.00
2018-02-05T12:40:03.061Z,20.90
2018-02-05T12:41:03.096Z,20.40
2018-02-05T12:42:03.128Z,20.60
2018-02-05T12:43:03.164Z,20.60
2018-02-05T12:44:03.197Z,19.80
2018-02-05T12:45:03.231Z,19.50
2018-02-05T12:46:03.264Z,18.30
2018-02-05T12:47:03.298Z,18.40
2018-02-05T12:48:03.333Z,20.30
2018-02-05T12:49:03.369Z,18.70
2018-02-05T12:50:03.404Z,19.40
2018-02-05T12:51:03.440Z,19.30
2018-02-05T12:52:03.477Z,19.10
2018-02-05T12:53:03.515Z,19.70